• Join FlightAware (Why Join?)
  • Login
  • US Flag 
07:03PM EST


 

Airport Tracker/Info


-or-


 

Live Flight TrackerFlight Track Log ✈ JUS327 ✈ 10-May-2013 ✈ KSLN - KTUS

Flight Track Log - Related Links

Times and Time Zones

All times are in EDT time to prevent confusion due to time zone crossing. See the JUS327 flight status page for this flight to view local times or setup timezone preferences in your user account.

Time Position Orientation Groundspeed Altitude Reporting Facility
EDT Latitude Longitude Course Direction KTS MPH feet Rate Location/Type
08:59PM 38.8636 -97.6586 349° North 194 223 4,200  Level Kansas City Center
09:00PM 38.8450 -97.7328 252° West 236 272 6,500 2,640 Climbing Kansas City Center
09:01PM 38.8150 -97.8286 248° West 274 315 9,700 2,700 Climbing Kansas City Center
09:02PM 38.5686 -98.4101 250° West  Level FlightAware Approximate
09:02PM 38.7856 -97.9308 250° West 311 358 12,100  Level Kansas City Center
09:03PM 38.5333 -98.5375 270° West  Level FlightAware Approximate
09:03PM 38.7550 -98.0419 251° West 330 380 15,200  Level Kansas City Center
09:04PM 38.7208 -98.1542 249° West 339 390 17,800 2,520 Climbing Kansas City Center
09:05PM 38.6869 -98.2697 249° West 347 399 20,400 2,400 Climbing Kansas City Center
09:06PM 38.6422 -98.4147 248° West 366 421 22,800 2,160 Climbing Kansas City Center
09:07PM 38.6075 -98.5431 251° West 380 437 24,900 1,860 Climbing Kansas City Center
09:08PM 38.5692 -98.6731 249° West 390 449 26,700 1,620 Climbing Kansas City Center
09:09PM 38.5286 -98.8072 249° West 404 465 28,300 1,560 Climbing Kansas City Center
09:10PM 38.4864 -98.9450 249° West 414 476 29,900 1,440 Climbing Kansas City Center
09:11PM 38.4431 -99.0861 249° West 425 489 31,300 1,200 Climbing Kansas City Center
09:12PM 38.3992 -99.2294 249° West 433 498 32,500 1,200 Climbing Kansas City Center
09:13PM 38.3453 -99.4033 248° West 439 505 33,800 720 Climbing Kansas City Center
09:14PM 38.3008 -99.5514 249° West 443 510 34,000 60 Climbing Kansas City Center
09:15PM 38.2553 -99.6889 247° West 441 507 34,000  Level Kansas City Center
09:16PM 38.2033 -99.8483 248° West 439 505 34,000  Level Kansas City Center
09:17PM 38.1611 -99.9850 249° West 436 502 34,000  Level Kansas City Center
09:18PM 38.1122 -100.1436 249° West 434 499 34,000  Level Kansas City Center
09:19PM 38.0681 -100.2789 248° West 433 498 34,000  Level Kansas City Center
09:20PM 38.0242 -100.4139 248° West 433 498 34,000  Level Kansas City Center
09:21PM 37.9722 -100.5725 247° West 436 502 34,000  Level Kansas City Center
09:23PM 37.9281 -100.7081 248° West 436 502 34,000  Level Kansas City Center
09:24PM 37.8633 -100.8589 242° Southwest 440 506 34,000  Level Kansas City Center
09:25PM 37.8000 -100.9822 237° Southwest 443 510 34,000  Level Kansas City Center
09:26PM 37.7253 -101.1297 237° Southwest 444 511 34,000  Level Kansas City Center
09:27PM 37.6656 -101.2533 239° Southwest 445 512 34,000  Level Kansas City Center
09:28PM 37.5944 -101.4036 239° Southwest 447 514 34,000  Level Kansas City Center
09:29PM 37.5333 -101.5317 239° Southwest 448 516 34,000  Level Kansas City Center
09:30PM 37.4564 -101.6758 236° Southwest 445 512 34,000  Level Kansas City Center
09:31PM 37.3947 -101.8042 239° Southwest 448 516 34,000  Level Kansas City Center
09:31PM 37.3558 -101.8919 241° Southwest 448 516 34,000  Level Albuquerque Center
09:32PM 37.2839 -102.0406 239° Southwest 448 516 34,000  Level Albuquerque Center
09:33PM 37.2175 -102.1664 237° Southwest 450 518 34,000  Level Albuquerque Center
09:34PM 37.1550 -102.2886 237° Southwest 450 518 34,000  Level Albuquerque Center
09:35PM 37.0778 -102.4417 238° Southwest 453 521 34,000  Level Albuquerque Center
09:36PM 37.0153 -102.5669 238° Southwest 454 522 34,000  Level Albuquerque Center
09:37PM 36.9381 -102.7153 237° Southwest 455 524 34,000  Level Albuquerque Center
09:38PM 36.8711 -102.8442 237° Southwest 458 527 34,000  Level Albuquerque Center
09:40PM 36.8036 -102.9717 237° Southwest 460 529 34,000  Level Albuquerque Center
09:41PM 36.7261 -103.1203 237° Southwest 458 527 34,000  Level Albuquerque Center
09:42PM 36.6597 -103.2483 237° Southwest 458 527 34,000  Level Albuquerque Center
09:43PM 36.5931 -103.3764 237° Southwest 457 526 34,000  Level Albuquerque Center
09:44PM 36.5219 -103.5097 236° Southwest 459 528 34,000  Level Albuquerque Center
09:45PM 36.4511 -103.6431 237° Southwest 458 527 34,000  Level Albuquerque Center
09:46PM 36.3686 -103.7950 236° Southwest 454 522 34,000  Level Albuquerque Center
09:47PM 36.2975 -103.9278 236° Southwest 457 526 34,000  Level Albuquerque Center
09:48PM 36.2269 -104.0594 236° Southwest 456 525 34,000  Level Albuquerque Center
09:49PM 36.1569 -104.1886 236° Southwest 452 520 34,000  Level Albuquerque Center
09:50PM 36.0858 -104.3181 236° Southwest 452 520 34,000  Level Albuquerque Center
09:51PM 36.0156 -104.4469 236° Southwest 451 519 34,000  Level Albuquerque Center
09:52PM 35.9447 -104.5750 236° Southwest 451 519 34,000  Level Albuquerque Center
09:53PM 35.8725 -104.7006 235° Southwest 449 517 34,000  Level Albuquerque Center
09:54PM 35.8006 -104.8314 236° Southwest 455 524 34,000  Level Albuquerque Center
09:55PM 35.7317 -104.9603 237° Southwest 452 520 34,000  Level Albuquerque Center
09:56PM 35.6619 -105.0881 236° Southwest 449 517 34,000  Level Albuquerque Center
09:57PM 35.5878 -105.2181 235° Southwest 458 527 34,000  Level Albuquerque Center
09:58PM 35.5169 -105.3458 236° Southwest 455 524 34,000  Level Albuquerque Center
09:59PM 35.4469 -105.4736 236° Southwest 449 517 34,000  Level Albuquerque Center
10:00PM 35.3622 -105.6194 235° Southwest 448 516 34,000  Level Albuquerque Center
10:01PM 35.2903 -105.7456 235° Southwest 449 517 34,000  Level Albuquerque Center
10:02PM 35.2183 -105.8733 235° Southwest 451 519 34,000  Level Albuquerque Center
10:03PM 35.1456 -106.0000 235° Southwest 450 518 34,000  Level Albuquerque Center
10:04PM 35.0775 -106.1197 235° Southwest 445 512 34,000  Level Albuquerque Center
10:05PM 35.0042 -106.2447 234° Southwest 449 517 34,000  Level Albuquerque Center
10:06PM 34.9333 -106.3700 235° Southwest 448 516 34,000  Level Albuquerque Center
10:07PM 34.8625 -106.4958 236° Southwest 447 514 34,000  Level Albuquerque Center
10:08PM 34.7886 -106.6200 234° Southwest 447 514 34,000  Level Albuquerque Center
10:09PM 34.7128 -106.7411 233° Southwest 446 513 34,000  Level Albuquerque Center
10:10PM 34.6389 -106.8636 234° Southwest 445 512 34,000  Level Albuquerque Center
10:11PM 34.5703 -106.9911 237° Southwest 450 518 34,000  Level Albuquerque Center
10:12PM 34.4992 -107.1164 235° Southwest 448 516 34,000  Level Albuquerque Center
10:13PM 34.4258 -107.2406 234° Southwest 449 517 34,000  Level Albuquerque Center
10:14PM 34.3517 -107.3650 234° Southwest 452 520 34,000  Level Albuquerque Center
10:15PM 34.2733 -107.4931 234° Southwest 452 520 34,000  Level Albuquerque Center
10:16PM 34.2022 -107.6167 235° Southwest 450 518 34,000  Level Albuquerque Center
10:17PM 34.1292 -107.7397 234° Southwest 452 520 34,000  Level Albuquerque Center
10:18PM 34.0403 -107.8861 234° Southwest 452 520 34,000  Level Albuquerque Center
10:19PM 33.9664 -108.0075 234° Southwest 452 520 34,000  Level Albuquerque Center
10:20PM 33.8933 -108.1294 234° Southwest 450 518 34,000  Level Albuquerque Center
10:21PM 33.8247 -108.2403 233° Southwest 445 512 34,000  Level Albuquerque Center
10:22PM 33.7514 -108.3611 234° Southwest 448 516 34,000  Level Albuquerque Center
10:23PM 33.6767 -108.4803 233° Southwest 450 518 34,000  Level Albuquerque Center
10:24PM 33.5894 -108.6236 234° Southwest 449 517 34,000  Level Albuquerque Center
10:25PM 33.5158 -108.7442 234° Southwest 452 520 34,000  Level Albuquerque Center
10:26PM 33.4422 -108.8642 234° Southwest 453 521 34,000  Level Albuquerque Center
10:27PM 33.3675 -108.9839 233° Southwest 455 524 34,000 -300 Level Albuquerque Center
10:28PM 33.2950 -109.1008 233° Southwest 450 518 33,500 -840 Descending Albuquerque Center
10:29PM 33.2094 -109.2392 234° Southwest 443 510 32,400 -1,020 Descending Albuquerque Center
10:31PM 33.1383 -109.3522 233° Southwest 436 502 31,500 -1,200 Descending Albuquerque Center
10:32PM 33.0664 -109.4650 233° Southwest 434 499 30,000 -1,200 Descending Albuquerque Center
10:33PM 32.9922 -109.5792 232° Southwest 440 506 29,100 -900 Descending Albuquerque Center
10:34PM 32.9214 -109.6950 234° Southwest 439 505 28,200 -960 Descending Albuquerque Center
10:35PM 32.8514 -109.8092 234° Southwest 436 502 27,200 -1,080 Descending Albuquerque Center
10:36PM 32.7656 -109.9397 232° Southwest 427 491 26,000 -1,260 Descending Albuquerque Center
10:37PM 32.6983 -110.0494 234° Southwest 418 481 24,700 -1,500 Descending Albuquerque Center
10:37PM 32.6769 -110.0789 229° Southwest 418 481 24,100 -2,580 Descending Albuquerque Center
10:38PM 32.6322 -110.1544 235° Southwest 406 467 22,100 -2,640 Descending Albuquerque Center
10:38PM 32.5936 -110.2086 230° Southwest 402 463 20,900 -2,220 Descending Albuquerque Center
10:39PM 32.5653 -110.2567 235° Southwest 399 459 19,900 -2,280 Descending Albuquerque Center
10:39PM 32.5356 -110.3036 233° Southwest 392 451 18,900 -2,220 Descending Albuquerque Center
10:40PM 32.5044 -110.3556 235° Southwest 387 445 17,700 -2,100 Descending Albuquerque Center
10:40PM 32.4717 -110.4022 230° Southwest 379 436 16,800 -2,280 Descending Albuquerque Center
10:41PM 32.4417 -110.4511 234° Southwest 375 432 15,400 -2,820 Descending Albuquerque Center
10:41PM 32.4108 -110.4950 230° Southwest 362 417 14,000 -2,460 Descending Albuquerque Center
10:42PM 32.3786 -110.5400 230° Southwest 364 419 12,900 -2,220 Descending Albuquerque Center
10:42PM 32.3556 -110.5733 231° Southwest 346 398 12,000 -1,500 Descending Albuquerque Center
10:43PM 32.3331 -110.6331 246° West 346 398 11,400 -600 Descending Albuquerque Center
10:44PM 32.2833 -110.7528 244° Southwest 343 395 11,000 -600 Descending Albuquerque Center
10:45PM 32.2856 -110.8475 272° West 252 290 10,100 -900 Descending Albuquerque Center
10:46PM 32.2925 -110.9161 277° West 246 283 9,200 -1,320 Descending Albuquerque Center
10:47PM 32.2961 -111.0111 273° West 239 275 7,500 -1,080 Descending Albuquerque Center
10:48PM 32.2664 -111.0600 234° Southwest 244 281 7,100 -780 Descending Albuquerque Center
10:49PM 32.2086 -111.0372 162° South 235 270 6,000 -1,380 Descending Albuquerque Center
10:50PM 32.1703 -111.0008 141° Southeast 200 230 4,300 -1,020 Descending Albuquerque Center
10:51PM 32.1650 -110.9586 98° East 186 214 4,000 -300 Descending Albuquerque Center